createdAt,value
2022-11-20T00:01:34.170Z,-3.25
2022-11-20T00:04:02.524Z,-3.23
2022-11-20T00:06:30.666Z,-3.22
2022-11-20T00:09:01.439Z,-3.20
2022-11-20T00:11:31.681Z,-3.26
2022-11-20T00:14:01.788Z,-3.33
2022-11-20T00:16:32.345Z,-3.37
2022-11-20T00:19:00.198Z,-3.37
2022-11-20T00:21:29.819Z,-3.37
2022-11-20T00:23:58.519Z,-3.38
2022-11-20T00:26:28.279Z,-3.44
2022-11-20T00:28:58.913Z,-3.59
2022-11-20T00:31:27.017Z,-3.73
2022-11-20T00:33:55.090Z,-3.86
2022-11-20T00:36:25.883Z,-3.95
2022-11-20T00:38:55.282Z,-4.03
2022-11-20T00:41:23.972Z,-4.12
2022-11-20T00:43:56.175Z,-4.22
2022-11-20T00:46:26.103Z,-4.29
2022-11-20T00:48:57.639Z,-4.36
2022-11-20T00:51:29.251Z,-4.41
2022-11-20T00:53:58.757Z,-4.44
2022-11-20T00:56:27.408Z,-4.49
2022-11-20T00:59:01.999Z,-4.55
2022-11-20T01:01:33.362Z,-4.60
2022-11-20T01:04:05.383Z,-4.68
2022-11-20T01:06:39.379Z,-4.74
2022-11-20T01:09:14.083Z,-4.81
2022-11-20T01:11:45.281Z,-4.86
2022-11-20T01:14:17.757Z,-4.88
2022-11-20T01:16:49.328Z,-4.90
2022-11-20T01:19:25.210Z,-4.94
2022-11-20T01:21:55.057Z,-4.96
2022-11-20T01:24:26.373Z,-5.01
2022-11-20T01:26:57.659Z,-5.07
2022-11-20T01:29:25.993Z,-5.11
2022-11-20T01:31:53.893Z,-5.15
2022-11-20T01:34:23.469Z,-5.19
2022-11-20T01:36:51.613Z,-5.23
2022-11-20T01:39:25.528Z,-5.26
2022-11-20T01:42:14.098Z,-5.28
2022-11-20T01:44:53.185Z,-5.30
2022-11-20T01:47:44.634Z,-5.33
2022-11-20T01:50:30.059Z,-5.39
2022-11-20T01:53:06.121Z,-5.41
2022-11-20T01:55:38.825Z,-5.44
2022-11-20T01:58:07.285Z,-5.44
2022-11-20T02:00:35.169Z,-5.45
2022-11-20T02:03:08.366Z,-5.44
2022-11-20T02:05:42.894Z,-5.42
2022-11-20T02:08:10.811Z,-5.42
2022-11-20T02:10:38.825Z,-5.45
2022-11-20T02:13:25.455Z,-5.50
2022-11-20T02:15:53.990Z,-5.54
2022-11-20T02:18:23.226Z,-5.58
2022-11-20T02:21:20.262Z,-5.61
2022-11-20T02:23:54.756Z,-5.60
2022-11-20T02:26:24.263Z,-5.57
2022-11-20T02:28:52.399Z,-5.55
2022-11-20T02:31:20.168Z,-5.53
2022-11-20T02:33:47.953Z,-5.52
2022-11-20T02:36:17.284Z,-5.54
2022-11-20T02:38:45.145Z,-5.58
2022-11-20T02:41:12.935Z,-5.64
2022-11-20T02:43:40.809Z,-5.67
2022-11-20T02:46:09.491Z,-5.68
2022-11-20T02:48:37.358Z,-5.64
2022-11-20T02:51:05.320Z,-5.57
2022-11-20T02:53:33.103Z,-5.52
2022-11-20T02:56:00.957Z,-5.47
2022-11-20T02:58:28.699Z,-5.39
2022-11-20T03:00:56.513Z,-5.33
2022-11-20T03:03:24.403Z,-5.28
2022-11-20T03:05:52.325Z,-5.29
2022-11-20T03:08:20.217Z,-5.28
2022-11-20T03:10:48.027Z,-5.30
2022-11-20T03:13:15.841Z,-5.33
2022-11-20T03:15:43.568Z,-5.35
2022-11-20T03:18:11.578Z,-5.38
2022-11-20T03:20:42.369Z,-5.38
2022-11-20T03:23:13.692Z,-5.39
2022-11-20T03:25:41.512Z,-5.37
2022-11-20T03:28:09.349Z,-5.34
2022-11-20T03:30:37.192Z,-5.30
2022-11-20T03:33:05.008Z,-5.25
2022-11-20T03:35:32.748Z,-5.18
2022-11-20T03:38:00.511Z,-5.12
2022-11-20T03:40:28.315Z,-5.02
2022-11-20T03:42:56.237Z,-4.92
2022-11-20T03:45:24.084Z,-4.80
2022-11-20T03:47:52.689Z,-4.69
2022-11-20T03:50:24.125Z,-4.60
2022-11-20T03:52:52.150Z,-4.54
2022-11-20T03:55:20.054Z,-4.47
2022-11-20T03:57:47.926Z,-4.39
2022-11-20T04:00:16.185Z,-4.29
2022-11-20T04:02:43.991Z,-4.19
2022-11-20T04:05:11.742Z,-4.10
2022-11-20T04:07:39.635Z,-4.03
2022-11-20T04:10:07.818Z,-3.96
2022-11-20T04:12:35.605Z,-3.91
2022-11-20T04:15:03.592Z,-3.87
2022-11-20T04:17:31.431Z,-3.85
2022-11-20T04:19:59.162Z,-3.83
2022-11-20T04:22:26.921Z,-3.81
2022-11-20T04:24:54.714Z,-3.76
2022-11-20T04:27:22.503Z,-3.70
2022-11-20T04:29:50.400Z,-3.65
2022-11-20T04:32:18.224Z,-3.63
2022-11-20T04:34:46.034Z,-3.62
2022-11-20T04:37:13.816Z,-3.64
2022-11-20T04:39:41.662Z,-3.65
2022-11-20T04:42:29.713Z,-3.64
2022-11-20T04:44:58.444Z,-3.61
2022-11-20T04:47:26.429Z,-3.57
2022-11-20T04:49:57.804Z,-3.52
2022-11-20T04:54:28.226Z,-3.44
2022-11-20T04:56:56.025Z,-3.42
2022-11-20T04:59:24.064Z,-3.37
2022-11-20T05:01:52.299Z,-3.35
2022-11-20T05:04:20.237Z,-3.36
2022-11-20T05:06:48.023Z,-3.38
2022-11-20T05:09:15.769Z,-3.40
2022-11-20T05:11:43.876Z,-3.45
2022-11-20T05:14:12.778Z,-3.52
2022-11-20T05:16:40.581Z,-3.55
2022-11-20T05:19:08.672Z,-3.59
2022-11-20T05:21:36.531Z,-3.61
2022-11-20T05:24:05.686Z,-3.62
2022-11-20T05:26:33.783Z,-3.63
2022-11-20T05:29:01.754Z,-3.67
2022-11-20T05:31:29.687Z,-3.71
2022-11-20T05:33:58.250Z,-3.74
2022-11-20T05:36:26.506Z,-3.79
2022-11-20T05:49:02.376Z,-3.97
2022-11-20T05:51:30.235Z,-4.02
2022-11-20T05:54:01.469Z,-4.04
2022-11-20T05:56:29.305Z,-4.07
2022-11-20T05:58:57.237Z,-4.11
2022-11-20T06:01:26.845Z,-4.17
2022-11-20T06:03:55.516Z,-4.19
2022-11-20T06:06:24.016Z,-4.22
2022-11-20T06:08:51.965Z,-4.23
2022-11-20T06:11:20.255Z,-4.24
2022-11-20T06:13:48.798Z,-4.24
2022-11-20T06:16:19.898Z,-4.24
2022-11-20T06:18:49.316Z,-4.23
2022-11-20T06:21:20.354Z,-4.24
2022-11-20T06:23:49.395Z,-4.30
2022-11-20T06:26:20.062Z,-4.35
2022-11-20T06:28:48.464Z,-4.42
2022-11-20T06:31:20.140Z,-4.49
2022-11-20T06:33:49.208Z,-4.53
2022-11-20T06:36:18.802Z,-4.58
2022-11-20T06:38:46.986Z,-4.57
2022-11-20T06:41:18.075Z,-4.54
2022-11-20T06:43:46.053Z,-4.49
2022-11-20T06:46:15.539Z,-4.43
2022-11-20T06:48:43.337Z,-4.38
2022-11-20T06:51:11.312Z,-4.32
2022-11-20T06:53:39.600Z,-4.27
2022-11-20T06:56:08.494Z,-4.20
2022-11-20T06:58:38.079Z,-4.09
2022-11-20T07:01:10.049Z,-3.95
2022-11-20T07:03:38.382Z,-3.79
2022-11-20T07:06:07.063Z,-3.62
2022-11-20T07:08:35.016Z,-3.46
2022-11-20T07:11:05.837Z,-3.32
2022-11-20T07:13:33.995Z,-3.14
2022-11-20T07:16:04.964Z,-3.00
2022-11-20T07:18:32.770Z,-2.88
2022-11-20T07:21:06.198Z,-2.78
2022-11-20T07:23:34.320Z,-2.71
2022-11-20T07:26:10.520Z,-2.61
2022-11-20T07:28:39.391Z,-2.49
2022-11-20T07:31:08.590Z,-2.38
2022-11-20T07:33:36.439Z,-2.28
2022-11-20T07:36:04.708Z,-2.19
2022-11-20T07:38:32.488Z,-2.11
2022-11-20T07:41:02.679Z,-2.03
2022-11-20T07:43:31.040Z,-1.99
2022-11-20T07:45:59.956Z,-1.94
2022-11-20T07:48:27.942Z,-1.87
2022-11-20T07:50:59.521Z,-1.79
2022-11-20T07:53:27.485Z,-1.72
2022-11-20T07:57:28.416Z,-1.63
2022-11-20T07:59:56.489Z,-1.59
2022-11-20T08:02:24.415Z,-1.55
2022-11-20T08:04:52.906Z,-1.51
2022-11-20T08:07:20.920Z,-1.48
2022-11-20T08:09:48.699Z,-1.45
2022-11-20T08:13:58.195Z,-1.39
2022-11-20T08:16:26.066Z,-1.36
2022-11-20T08:18:57.546Z,-1.26
2022-11-20T08:21:30.870Z,-1.13
2022-11-20T08:24:01.919Z,-0.99
2022-11-20T08:26:30.951Z,-0.88
2022-11-20T08:28:59.637Z,-0.81
2022-11-20T08:31:28.931Z,-0.71
2022-11-20T08:33:57.262Z,-0.60
2022-11-20T08:36:30.047Z,-0.50
2022-11-20T08:39:02.499Z,-0.39
2022-11-20T08:41:37.254Z,-0.31
2022-11-20T08:44:08.050Z,-0.26
2022-11-20T08:46:39.419Z,-0.21
2022-11-20T08:49:12.672Z,-0.17
2022-11-20T08:51:41.153Z,-0.15
2022-11-20T08:54:12.056Z,-0.13
2022-11-20T08:56:43.399Z,-0.12
2022-11-20T09:02:02.522Z,0.02
2022-11-20T09:04:30.343Z,0.05
2022-11-20T09:06:58.228Z,0.08
2022-11-20T09:09:26.311Z,0.08
2022-11-20T09:11:54.197Z,0.15
2022-11-20T09:14:22.509Z,0.22
2022-11-20T09:16:50.305Z,0.31
2022-11-20T09:19:35.025Z,0.38
2022-11-20T09:22:04.017Z,0.48
2022-11-20T09:24:31.838Z,0.59
2022-11-20T09:27:03.147Z,0.65
2022-11-20T09:29:31.126Z,0.70
2022-11-20T09:31:58.914Z,0.70
2022-11-20T09:34:26.655Z,0.66
2022-11-20T09:36:54.491Z,0.60
2022-11-20T09:39:22.389Z,0.62
2022-11-20T09:42:14.423Z,0.63
2022-11-20T09:45:03.137Z,0.69
2022-11-20T09:47:37.101Z,0.81
2022-11-20T09:50:48.987Z,0.93
2022-11-20T09:53:35.097Z,1.07
2022-11-20T09:56:05.796Z,1.16
2022-11-20T09:58:43.934Z,1.24
2022-11-20T10:01:16.770Z,1.34
2022-11-20T10:04:01.987Z,1.48
2022-11-20T10:07:04.064Z,1.55
2022-11-20T10:09:45.550Z,1.63
2022-11-20T10:12:22.396Z,1.74
2022-11-20T10:14:59.958Z,1.91
2022-11-20T10:17:56.554Z,2.11
2022-11-20T10:20:36.589Z,2.24
2022-11-20T10:23:26.481Z,2.50
2022-11-20T10:26:03.551Z,2.81
2022-11-20T10:29:11.013Z,2.88
2022-11-20T10:31:42.339Z,3.00
2022-11-20T10:34:24.964Z,3.08
2022-11-20T10:36:57.470Z,3.01
2022-11-20T10:39:47.248Z,3.01
2022-11-20T10:42:22.470Z,3.03
2022-11-20T10:45:05.651Z,3.06
2022-11-20T10:47:34.635Z,3.11
2022-11-20T10:50:09.953Z,3.14
2022-11-20T10:53:00.882Z,3.19
2022-11-20T10:55:46.122Z,3.19
2022-11-20T10:58:46.593Z,3.20
2022-11-20T11:01:24.578Z,3.31
2022-11-20T11:03:54.035Z,3.44
2022-11-20T11:06:43.783Z,3.51
2022-11-20T11:09:26.461Z,3.55
2022-11-20T11:11:54.171Z,3.57
2022-11-20T11:14:21.992Z,3.56
2022-11-20T11:16:57.973Z,3.57
2022-11-20T11:19:26.302Z,3.59
2022-11-20T11:21:58.217Z,3.53
2022-11-20T11:24:46.739Z,3.64
2022-11-20T11:27:18.779Z,3.77
2022-11-20T11:29:47.995Z,3.92
2022-11-20T11:32:20.022Z,4.05
2022-11-20T11:35:05.956Z,4.05
2022-11-20T11:37:36.912Z,3.91
2022-11-20T11:43:00.212Z,3.70
2022-11-20T11:45:28.663Z,3.64
2022-11-20T11:48:04.465Z,3.65
2022-11-20T11:50:32.729Z,3.57
2022-11-20T11:53:18.130Z,3.57
2022-11-20T11:55:58.091Z,3.51
2022-11-20T11:58:49.602Z,3.31
2022-11-20T12:01:32.496Z,3.14
2022-11-20T12:04:35.027Z,3.08
2022-11-20T12:09:54.756Z,2.96
2022-11-20T12:12:09.903Z,2.90
2022-11-20T12:14:31.721Z,2.84
2022-11-20T12:16:38.437Z,2.82
2022-11-20T12:18:42.756Z,2.85
2022-11-20T12:21:11.698Z,2.93
2022-11-20T12:23:26.765Z,3.12
2022-11-20T12:25:34.411Z,3.31
2022-11-20T12:32:58.225Z,3.65
2022-11-20T12:35:11.325Z,3.57
2022-11-20T12:37:29.263Z,3.50
2022-11-20T12:40:02.975Z,3.49
2022-11-20T12:42:38.831Z,3.57
2022-11-20T12:45:12.246Z,3.57
2022-11-20T12:47:57.315Z,3.59
2022-11-20T12:50:05.806Z,3.63
2022-11-20T12:52:26.712Z,3.71
2022-11-20T12:54:47.665Z,3.91
2022-11-20T12:57:30.903Z,4.07
2022-11-20T12:59:59.426Z,4.18
2022-11-20T13:02:23.862Z,4.20
2022-11-20T13:05:04.046Z,4.20
2022-11-20T13:07:13.253Z,4.25
2022-11-20T13:09:19.531Z,4.29
2022-11-20T13:12:01.620Z,4.35
2022-11-20T13:14:32.187Z,4.30
2022-11-20T13:17:00.919Z,4.14
2022-11-20T13:19:11.797Z,3.91
2022-11-20T13:21:33.426Z,3.77
2022-11-20T13:23:34.911Z,3.67
2022-11-20T13:25:38.505Z,3.59
2022-11-20T13:27:49.395Z,3.56
2022-11-20T13:30:18.546Z,3.53
2022-11-20T13:32:21.672Z,3.50
2022-11-20T13:34:27.716Z,3.51
2022-11-20T13:36:30.675Z,3.54
2022-11-20T13:38:45.330Z,3.54
2022-11-20T13:41:23.874Z,3.50
2022-11-20T13:43:41.451Z,3.48
2022-11-20T13:45:43.087Z,3.46
2022-11-20T13:47:52.188Z,3.42
2022-11-20T13:49:56.190Z,3.39
2022-11-20T13:52:22.551Z,3.34
2022-11-20T13:54:52.251Z,3.27
2022-11-20T13:57:20.419Z,3.18
2022-11-20T13:59:55.179Z,3.02
2022-11-20T14:01:56.783Z,2.85
2022-11-20T14:04:06.028Z,2.74
2022-11-20T14:06:31.905Z,2.66
2022-11-20T14:08:40.527Z,2.60
2022-11-20T14:10:42.093Z,2.60
2022-11-20T14:12:43.620Z,2.62
2022-11-20T14:14:53.430Z,2.64
2022-11-20T14:17:22.546Z,2.63
2022-11-20T14:19:28.140Z,2.63
2022-11-20T14:21:30.257Z,2.59
2022-11-20T14:23:31.739Z,2.56
2022-11-20T14:25:33.324Z,2.55
2022-11-20T14:27:37.922Z,2.53
2022-11-20T14:29:41.045Z,2.51
2022-11-20T14:31:44.734Z,2.46
2022-11-20T14:33:47.510Z,2.45
2022-11-20T14:35:55.055Z,2.45
2022-11-20T14:37:57.915Z,2.43
2022-11-20T14:40:01.020Z,2.38
2022-11-20T14:42:14.956Z,2.32
2022-11-20T14:44:16.407Z,2.26
2022-11-20T14:46:18.202Z,2.21
2022-11-20T14:48:23.139Z,2.17
2022-11-20T14:50:27.485Z,2.13
2022-11-20T14:52:29.021Z,2.10
2022-11-20T14:54:31.153Z,2.08
2022-11-20T14:56:32.584Z,2.08
2022-11-20T14:58:34.490Z,2.06
2022-11-20T15:00:36.041Z,2.05
2022-11-20T15:02:45.629Z,2.03
2022-11-20T15:04:56.904Z,2.03
2022-11-20T15:07:00.154Z,2.02
2022-11-20T15:09:03.919Z,2.00
2022-11-20T15:11:21.474Z,1.98
2022-11-20T15:13:33.450Z,1.95
2022-11-20T15:15:49.866Z,1.94
2022-11-20T15:17:51.458Z,1.93
2022-11-20T15:19:54.182Z,1.92
2022-11-20T15:21:55.897Z,1.93
2022-11-20T15:23:57.771Z,1.92
2022-11-20T15:25:59.174Z,1.93
2022-11-20T15:28:00.601Z,1.93
2022-11-20T15:30:02.202Z,1.93
2022-11-20T15:32:05.930Z,1.92
2022-11-20T15:34:14.840Z,1.91
2022-11-20T15:36:16.235Z,1.90
2022-11-20T15:38:17.694Z,1.91
2022-11-20T15:40:19.076Z,1.92
2022-11-20T15:42:20.703Z,1.94
2022-11-20T15:44:22.467Z,1.95
2022-11-20T15:46:28.109Z,2.00
2022-11-20T15:48:34.757Z,2.01
2022-11-20T15:50:39.564Z,2.01
2022-11-20T15:52:42.284Z,2.00
2022-11-20T15:54:43.935Z,2.00
2022-11-20T15:56:45.348Z,1.99
2022-11-20T15:58:46.851Z,1.99
2022-11-20T16:00:48.316Z,1.98
2022-11-20T16:02:49.719Z,1.96
2022-11-20T16:04:51.171Z,1.95
2022-11-20T16:06:52.698Z,1.95
2022-11-20T16:08:54.154Z,1.95
2022-11-20T16:10:55.619Z,1.96
2022-11-20T16:13:15.966Z,1.98
2022-11-20T16:15:36.297Z,1.97
2022-11-20T16:17:43.768Z,1.95
2022-11-20T16:19:45.179Z,1.90
2022-11-20T16:21:46.885Z,1.86
2022-11-20T16:23:48.452Z,1.83
2022-11-20T16:25:50.842Z,1.79
2022-11-20T16:27:52.263Z,1.77
2022-11-20T16:29:53.593Z,1.77
2022-11-20T16:31:55.036Z,1.77
2022-11-20T16:33:58.783Z,1.77
2022-11-20T16:36:10.595Z,1.78
2022-11-20T16:38:12.084Z,1.79
2022-11-20T16:40:13.733Z,1.78
2022-11-20T16:42:15.388Z,1.77
2022-11-20T16:44:16.781Z,1.73
2022-11-20T16:46:20.708Z,1.70
2022-11-20T16:48:22.180Z,1.63
2022-11-20T16:50:23.547Z,1.54
2022-11-20T16:52:24.979Z,1.46
2022-11-20T16:54:26.736Z,1.39
2022-11-20T16:56:28.618Z,1.33
2022-11-20T16:58:30.074Z,1.28
2022-11-20T17:00:31.550Z,1.24
2022-11-20T17:02:33.040Z,1.21
2022-11-20T17:04:34.473Z,1.18
2022-11-20T17:06:40.020Z,1.17
2022-11-20T17:08:41.647Z,1.17
2022-11-20T17:10:43.227Z,1.17
2022-11-20T17:12:44.878Z,1.20
2022-11-20T17:14:46.372Z,1.24
2022-11-20T17:16:47.799Z,1.28
2022-11-20T17:18:49.751Z,1.30
2022-11-20T17:20:52.011Z,1.32
2022-11-20T17:22:53.426Z,1.32
2022-11-20T17:24:54.861Z,1.31
2022-11-20T17:26:56.308Z,1.29
2022-11-20T17:28:59.312Z,1.28
2022-11-20T17:31:02.278Z,1.30
2022-11-20T17:33:03.778Z,1.31
2022-11-20T17:35:05.645Z,1.32
2022-11-20T17:37:07.033Z,1.33
2022-11-20T17:39:08.509Z,1.34
2022-11-20T17:41:15.283Z,1.34
2022-11-20T17:43:17.347Z,1.35
2022-11-20T17:45:18.795Z,1.37
2022-11-20T17:47:20.188Z,1.38
2022-11-20T17:49:24.112Z,1.38
2022-11-20T17:51:28.347Z,1.38
2022-11-20T17:53:34.140Z,1.37
2022-11-20T17:55:56.037Z,1.35
2022-11-20T17:58:02.195Z,1.35
2022-11-20T18:00:04.002Z,1.36
2022-11-20T18:02:05.544Z,1.38
2022-11-20T18:04:06.958Z,1.39
2022-11-20T18:06:22.681Z,1.41
2022-11-20T18:08:24.070Z,1.44
2022-11-20T18:10:25.538Z,1.47
2022-11-20T18:12:27.039Z,1.50
2022-11-20T18:14:31.728Z,1.52
2022-11-20T18:16:39.101Z,1.53
2022-11-20T18:18:40.573Z,1.52
2022-11-20T18:20:42.098Z,1.49
2022-11-20T18:22:44.024Z,1.45
2022-11-20T18:24:45.644Z,1.39
2022-11-20T18:26:47.489Z,1.31
2022-11-20T18:28:49.531Z,1.25
2022-11-20T18:30:51.004Z,1.21
2022-11-20T18:32:52.512Z,1.18
2022-11-20T18:34:53.894Z,1.18
2022-11-20T18:36:55.487Z,1.20
2022-11-20T18:38:59.467Z,1.22
2022-11-20T18:41:03.928Z,1.28
2022-11-20T18:43:29.301Z,1.35
2022-11-20T18:45:31.066Z,1.43
2022-11-20T18:47:36.786Z,1.48
2022-11-20T18:49:38.493Z,1.54
2022-11-20T18:51:43.467Z,1.58
2022-11-20T18:53:47.528Z,1.55
2022-11-20T18:55:49.514Z,1.54
2022-11-20T18:57:50.976Z,1.53
2022-11-20T18:59:53.417Z,1.54
2022-11-20T19:01:54.935Z,1.58
2022-11-20T19:03:57.342Z,1.62
2022-11-20T19:05:58.786Z,1.66
2022-11-20T19:08:00.179Z,1.69
2022-11-20T19:10:04.149Z,1.69
2022-11-20T19:12:08.315Z,1.67
2022-11-20T19:14:09.889Z,1.67
2022-11-20T19:16:17.480Z,1.67
2022-11-20T19:18:19.062Z,1.66
2022-11-20T19:20:20.678Z,1.65
2022-11-20T19:22:22.361Z,1.61
2022-11-20T19:24:24.142Z,1.58
2022-11-20T19:26:26.281Z,1.59
2022-11-20T19:28:34.430Z,1.60
2022-11-20T19:30:35.911Z,1.61
2022-11-20T19:32:37.359Z,1.62
2022-11-20T19:34:38.705Z,1.65
2022-11-20T19:36:44.731Z,1.68
2022-11-20T19:38:49.536Z,1.71
2022-11-20T19:40:51.146Z,1.75
2022-11-20T19:42:52.621Z,1.77
2022-11-20T19:44:54.068Z,1.79
2022-11-20T19:46:56.736Z,1.77
2022-11-20T19:48:59.072Z,1.75
2022-11-20T19:51:09.265Z,1.72
2022-11-20T19:53:11.147Z,1.64
2022-11-20T19:55:12.650Z,1.60
2022-11-20T19:57:14.130Z,1.63
2022-11-20T19:59:15.922Z,1.64
2022-11-20T20:01:20.554Z,1.65
2022-11-20T20:03:22.581Z,1.65
2022-11-20T20:05:24.027Z,1.66
2022-11-20T20:07:25.590Z,1.62
2022-11-20T20:09:27.123Z,1.58
2022-11-20T20:11:32.142Z,1.55
2022-11-20T20:13:33.581Z,1.55
2022-11-20T20:15:40.570Z,1.47
2022-11-20T20:17:42.041Z,1.37
2022-11-20T20:19:43.557Z,1.34
2022-11-20T20:21:44.994Z,1.34
2022-11-20T20:23:52.730Z,1.35
2022-11-20T20:25:54.779Z,1.34
2022-11-20T20:27:56.858Z,1.32
2022-11-20T20:29:58.273Z,1.30
2022-11-20T20:32:00.360Z,1.33
2022-11-20T20:34:04.684Z,1.35
2022-11-20T20:36:08.356Z,1.39
2022-11-20T20:38:09.749Z,1.43
2022-11-20T20:40:15.174Z,1.48
2022-11-20T20:42:17.012Z,1.54
2022-11-20T20:44:37.502Z,1.60
2022-11-20T20:46:39.981Z,1.67
2022-11-20T20:48:41.429Z,1.73
2022-11-20T20:50:52.112Z,1.79
2022-11-20T20:52:53.557Z,1.83
2022-11-20T20:54:55.264Z,1.88
2022-11-20T20:56:56.749Z,1.92
2022-11-20T20:58:58.322Z,1.97
2022-11-20T21:01:12.280Z,2.02
2022-11-20T21:03:13.767Z,2.09
2022-11-20T21:05:15.186Z,2.13
2022-11-20T21:07:17.797Z,2.18
2022-11-20T21:09:19.840Z,2.21
2022-11-20T21:11:21.251Z,2.28
2022-11-20T21:13:23.388Z,2.33
2022-11-20T21:15:24.988Z,2.40
2022-11-20T21:17:26.485Z,2.46
2022-11-20T21:19:27.985Z,2.50
2022-11-20T21:21:48.019Z,2.53
2022-11-20T21:23:50.710Z,2.55
2022-11-20T21:25:52.393Z,2.55
2022-11-20T21:27:53.770Z,2.54
2022-11-20T21:29:55.191Z,2.53
2022-11-20T21:31:57.821Z,2.52
2022-11-20T21:34:00.505Z,2.54
2022-11-20T21:36:03.434Z,2.57
2022-11-20T21:38:04.877Z,2.58
2022-11-20T21:40:06.984Z,2.59
2022-11-20T21:42:08.580Z,2.59
2022-11-20T21:46:38.365Z,2.60
2022-11-20T21:48:41.008Z,2.60
2022-11-20T21:53:42.664Z,2.61
2022-11-20T21:55:52.671Z,2.55
2022-11-20T21:57:54.129Z,2.52
2022-11-20T21:59:55.600Z,2.50
2022-11-20T22:01:57.119Z,2.50
2022-11-20T22:04:02.099Z,2.48
2022-11-20T22:06:04.061Z,2.44
2022-11-20T22:08:05.726Z,2.39
2022-11-20T22:10:07.482Z,2.33
2022-11-20T22:12:08.902Z,2.29
2022-11-20T22:14:19.862Z,2.24
2022-11-20T22:16:21.773Z,2.18
2022-11-20T22:18:23.178Z,2.09
2022-11-20T22:20:24.570Z,1.97
2022-11-20T22:22:26.019Z,1.84
2022-11-20T22:24:27.781Z,1.72
2022-11-20T22:26:33.892Z,1.62
2022-11-20T22:28:39.940Z,1.56
2022-11-20T22:30:41.546Z,1.50
2022-11-20T22:32:42.940Z,1.46
2022-11-20T22:34:44.411Z,1.44
2022-11-20T22:36:45.981Z,1.41
2022-11-20T22:38:48.051Z,1.39
2022-11-20T22:40:49.492Z,1.38
2022-11-20T22:42:50.885Z,1.36
2022-11-20T22:44:52.435Z,1.33
2022-11-20T22:46:53.942Z,1.30
2022-11-20T22:48:58.262Z,1.31
2022-11-20T22:51:01.744Z,1.29
2022-11-20T22:53:03.241Z,1.28
2022-11-20T22:55:05.156Z,1.26
2022-11-20T22:57:06.614Z,1.23
2022-11-20T22:59:08.523Z,1.20
2022-11-20T23:01:14.067Z,1.17
2022-11-20T23:03:15.495Z,1.12
2022-11-20T23:05:16.953Z,1.04
2022-11-20T23:07:18.417Z,0.97
2022-11-20T23:09:19.921Z,0.89
2022-11-20T23:11:27.182Z,0.81
2022-11-20T23:13:29.276Z,0.74
2022-11-20T23:15:32.992Z,0.68
2022-11-20T23:17:34.453Z,0.61
2022-11-20T23:19:35.857Z,0.56
2022-11-20T23:21:39.035Z,0.49
2022-11-20T23:23:41.525Z,0.43
2022-11-20T23:25:43.113Z,0.35
2022-11-20T23:27:44.699Z,0.28
2022-11-20T23:29:46.155Z,0.21
2022-11-20T23:31:47.661Z,0.13
2022-11-20T23:33:49.304Z,0.08
2022-11-20T23:35:51.409Z,0.05
2022-11-20T23:37:52.832Z,0.02
2022-11-20T23:39:54.307Z,-0.03
2022-11-20T23:41:55.704Z,-0.07
2022-11-20T23:43:57.074Z,-0.09
2022-11-20T23:46:00.249Z,-0.10
2022-11-20T23:48:01.621Z,-0.12
2022-11-20T23:50:03.292Z,-0.14
2022-11-20T23:52:04.651Z,-0.17
2022-11-20T23:54:06.183Z,-0.18
2022-11-20T23:56:07.687Z,-0.19
2022-11-20T23:58:09.198Z,-0.19
